Time;durP1;ratioP1;P1;durP2;ratioP2;P2;SDS_P1;SDS_P2;PMS_P1;PMS_P2;Temp;Humidity;BMP_temperature;BMP_pressure;BME280_temperature;BME280_humidity;BME280_pressure;Samples;Min_cycle;Max_cycle;Signal;HPM_P1;HPM_P2
2024/01/27 00:02:06;;;;;;;2.93;1.30;;;8.50;38.90;;;;;;10366091;28;20491;-76
2024/01/27 00:07:09;;;;;;;2.83;1.30;;;8.50;39.10;;;;;;10367910;28;20245;-76
2024/01/27 00:12:13;;;;;;;2.20;1.20;;;8.50;39.10;;;;;;10367594;28;20237;-76
2024/01/27 00:17:19;;;;;;;1.57;1.20;;;8.50;39.10;;;;;;10366372;28;20321;-76
2024/01/27 00:22:22;;;;;;;2.43;1.10;;;8.50;38.80;;;;;;10366410;28;20660;-76
2024/01/27 00:27:25;;;;;;;2.77;1.37;;;8.50;38.80;;;;;;10366058;28;20230;-76
2024/01/27 00:32:30;;;;;;;2.43;1.30;;;8.40;38.80;;;;;;10367475;28;20293;-76
2024/01/27 00:37:34;;;;;;;2.30;1.43;;;8.40;38.70;;;;;;10407360;28;20237;-76
2024/01/27 00:42:37;;;;;;;3.37;1.57;;;8.30;38.80;;;;;;10407785;28;20247;-76
2024/01/27 00:47:42;;;;;;;3.57;1.67;;;8.30;38.80;;;;;;10409454;28;20249;-76
2024/01/27 00:52:45;;;;;;;3.30;1.57;;;8.20;38.50;;;;;;10409608;28;20550;-76
2024/01/27 00:57:48;;;;;;;3.00;1.77;;;8.10;38.60;;;;;;10409303;28;20230;-76
2024/01/27 01:02:53;;;;;;;3.10;1.60;;;8.00;39.00;;;;;;10409169;28;20330;-76
2024/01/27 01:07:56;;;;;;;2.83;1.50;;;7.90;39.10;;;;;;10408584;28;20292;-76
2024/01/27 01:12:59;;;;;;;3.27;1.40;;;7.90;39.20;;;;;;10408264;28;20240;-76
2024/01/27 01:18:04;;;;;;;2.70;1.50;;;7.80;39.10;;;;;;10408434;28;20665;-76
2024/01/27 01:23:07;;;;;;;2.50;1.50;;;7.80;39.10;;;;;;10408356;28;20237;-76
2024/01/27 01:28:10;;;;;;;3.67;1.43;;;7.70;39.00;;;;;;10408332;28;20328;-76
2024/01/27 01:33:15;;;;;;;3.17;1.80;;;7.60;38.90;;;;;;10407424;28;20245;-76
2024/01/27 01:38:19;;;;;;;3.77;1.40;;;7.50;38.80;;;;;;10407627;28;20238;-76
2024/01/27 01:43:22;;;;;;;3.17;1.40;;;7.40;38.80;;;;;;10405473;28;20324;-76
2024/01/27 01:48:27;;;;;;;2.10;1.50;;;7.40;38.80;;;;;;10406752;28;20692;-76
2024/01/27 01:53:30;;;;;;;2.90;1.30;;;7.30;39.00;;;;;;10405861;28;20240;-76
2024/01/27 01:58:34;;;;;;;2.40;1.20;;;7.20;39.10;;;;;;10388085;28;20708;-76
2024/01/27 02:03:40;;;;;;;1.37;1.27;;;7.20;39.20;;;;;;10365792;28;20724;-76
2024/01/27 02:08:43;;;;;;;4.50;1.63;;;7.10;39.30;;;;;;10365808;28;20222;-76
2024/01/27 02:13:48;;;;;;;3.97;2.10;;;7.10;39.30;;;;;;10358291;28;20230;-76
2024/01/27 02:18:53;;;;;;;3.00;1.70;;;7.10;39.30;;;;;;10357108;28;20258;-76
2024/01/27 02:23:56;;;;;;;2.33;1.70;;;7.00;39.50;;;;;;10356074;28;21090;-77
2024/01/27 02:29:01;;;;;;;2.37;1.33;;;7.00;39.50;;;;;;10357337;28;20647;-76
2024/01/27 02:34:04;;;;;;;3.00;1.50;;;7.00;39.50;;;;;;10355792;28;20671;-76
2024/01/27 02:39:08;;;;;;;4.37;1.90;;;7.00;39.40;;;;;;10356730;28;20241;-76
2024/01/27 02:44:12;;;;;;;2.10;1.70;;;6.90;39.30;;;;;;10356102;28;20252;-77
2024/01/27 02:49:15;;;;;;;5.60;1.77;;;7.00;39.30;;;;;;10386236;28;20229;-76
2024/01/27 02:54:19;;;;;;;2.77;1.40;;;6.90;39.10;;;;;;10397226;28;20378;-76
2024/01/27 02:59:23;;;;;;;4.80;1.70;;;7.00;39.10;;;;;;10396669;28;20287;-76
2024/01/27 03:04:27;;;;;;;2.87;1.50;;;7.00;39.00;;;;;;10365042;28;20230;-76
2024/01/27 03:09:30;;;;;;;2.97;1.63;;;7.00;39.10;;;;;;10395973;28;20232;-76
2024/01/27 03:14:35;;;;;;;3.10;1.60;;;7.00;39.10;;;;;;10404051;28;20284;-75
2024/01/27 03:19:39;;;;;;;2.63;1.40;;;6.90;38.90;;;;;;10404541;28;20718;-76
2024/01/27 03:24:42;;;;;;;2.67;1.53;;;7.00;39.20;;;;;;10404326;28;20236;-76
2024/01/27 03:29:46;;;;;;;5.47;1.60;;;6.90;38.90;;;;;;10386996;28;20229;-77
2024/01/27 03:34:50;;;;;;;2.07;1.40;;;6.90;38.90;;;;;;10385808;28;20272;-77
2024/01/27 03:39:53;;;;;;;4.10;1.60;;;6.90;39.00;;;;;;10453251;28;20771;-76
2024/01/27 03:44:58;;;;;;;1.97;1.50;;;6.80;39.00;;;;;;10453264;28;20707;-76
2024/01/27 03:50:01;;;;;;;3.33;1.50;;;6.70;39.10;;;;;;10427810;28;20238;-77
2024/01/27 03:55:05;;;;;;;2.53;1.60;;;6.80;39.40;;;;;;10385395;28;20226;-76
2024/01/27 04:00:12;;;;;;;2.80;1.50;;;6.80;39.20;;;;;;10411357;28;20304;-77
2024/01/27 04:05:15;;;;;;;7.33;1.67;;;6.80;39.00;;;;;;10378678;28;20265;-77
2024/01/27 04:10:19;;;;;;;3.07;1.50;;;6.80;38.90;;;;;;10370207;28;20234;-77
2024/01/27 04:15:24;;;;;;;3.83;1.53;;;6.80;39.00;;;;;;10369858;28;20241;-77
2024/01/27 04:20:27;;;;;;;4.23;1.87;;;6.80;38.90;;;;;;10369783;28;20238;-77
2024/01/27 04:25:30;;;;;;;5.27;1.70;;;6.70;38.90;;;;;;10369504;28;20230;-77
2024/01/27 04:30:35;;;;;;;3.00;1.90;;;6.70;38.90;;;;;;10395025;28;20646;-77
2024/01/27 04:35:38;;;;;;;2.10;1.70;;;6.70;39.00;;;;;;10410218;28;20225;-77
2024/01/27 04:40:42;;;;;;;3.43;1.83;;;6.70;39.00;;;;;;10375073;28;20226;-77
2024/01/27 04:45:48;;;;;;;3.83;1.93;;;6.60;39.00;;;;;;10408083;28;20706;-77
2024/01/27 04:50:51;;;;;;;3.63;1.80;;;6.60;39.10;;;;;;10409640;28;20292;-76
2024/01/27 04:55:55;;;;;;;4.07;1.60;;;6.60;39.00;;;;;;10383285;28;20226;-76
2024/01/27 05:00:59;;;;;;;3.07;1.83;;;6.60;39.00;;;;;;10409773;28;20261;-77
2024/01/27 05:06:03;;;;;;;4.00;2.03;;;6.60;39.00;;;;;;10408808;28;20256;-76
2024/01/27 05:11:07;;;;;;;3.27;1.97;;;6.50;39.10;;;;;;10409010;28;20229;-76
2024/01/27 05:16:11;;;;;;;2.30;1.70;;;6.50;39.30;;;;;;10409193;28;20230;-77
2024/01/27 05:21:14;;;;;;;5.13;2.20;;;6.40;39.20;;;;;;10409058;28;20288;-76
2024/01/27 05:26:18;;;;;;;6.07;3.53;;;6.40;39.20;;;;;;10408793;28;20307;-76
2024/01/27 05:31:23;;;;;;;8.67;5.90;;;6.40;39.30;;;;;;10408366;28;22360;-77
2024/01/27 05:36:26;;;;;;;6.27;3.97;;;6.30;39.10;;;;;;10407723;28;20230;-77
2024/01/27 05:41:30;;;;;;;6.27;4.10;;;6.20;39.10;;;;;;10408443;28;20654;-76
2024/01/27 05:46:34;;;;;;;8.03;3.50;;;6.20;39.20;;;;;;10408313;28;20226;-76
2024/01/27 05:51:38;;;;;;;4.30;3.60;;;6.10;39.30;;;;;;10408616;28;20225;-76
2024/01/27 05:56:42;;;;;;;6.13;3.70;;;6.00;39.40;;;;;;10408042;28;20221;-76
2024/01/27 06:01:47;;;;;;;6.43;3.30;;;6.00;39.50;;;;;;10408325;28;20244;-76
2024/01/27 06:06:50;;;;;;;5.03;2.80;;;5.90;39.40;;;;;;10407856;28;20249;-76
2024/01/27 06:11:54;;;;;;;4.43;2.77;;;5.90;39.40;;;;;;10407674;28;20296;-76
2024/01/27 06:16:59;;;;;;;4.70;3.10;;;5.80;39.40;;;;;;10407899;28;20233;-76
2024/01/27 06:22:03;;;;;;;6.90;3.47;;;5.80;39.60;;;;;;10407422;28;20238;-76
2024/01/27 06:27:10;;;;;;;5.67;3.90;;;5.70;39.70;;;;;;10407626;28;20233;-76
2024/01/27 06:32:15;;;;;;;6.27;4.43;;;5.70;39.50;;;;;;10407882;28;20311;-76
2024/01/27 06:37:19;;;;;;;8.03;7.00;;;5.60;39.60;;;;;;10407251;28;20316;-76
2024/01/27 06:42:25;;;;;;;8.67;7.50;;;5.50;39.60;;;;;;10408583;28;20266;-76
2024/01/27 06:47:30;;;;;;;7.40;4.30;;;5.50;39.80;;;;;;10408769;28;20236;-77
2024/01/27 06:52:33;;;;;;;5.03;3.53;;;5.40;39.90;;;;;;10408505;28;20927;-77
2024/01/27 06:57:36;;;;;;;5.97;2.57;;;5.40;39.90;;;;;;10408917;28;20225;-76
2024/01/27 07:02:41;;;;;;;6.87;2.80;;;5.30;39.80;;;;;;10408285;28;20240;-76
2024/01/27 07:07:44;;;;;;;2.70;2.37;;;5.20;39.90;;;;;;10408975;28;20221;-76
2024/01/27 07:12:48;;;;;;;4.33;3.20;;;5.10;39.80;;;;;;10416618;28;20225;-76
2024/01/27 07:17:53;;;;;;;5.27;3.53;;;5.00;40.10;;;;;;10416879;28;20242;-76
2024/01/27 07:22:56;;;;;;;4.37;2.90;;;4.90;40.30;;;;;;10416069;28;20307;-76
2024/01/27 07:27:59;;;;;;;7.37;4.20;;;4.80;41.00;;;;;;10415852;28;20252;-75
2024/01/27 07:33:04;;;;;;;8.57;4.40;;;4.80;40.40;;;;;;10414986;28;20261;-75
2024/01/27 07:38:08;;;;;;;10.10;7.67;;;4.70;40.80;;;;;;10414941;28;20735;-75
2024/01/27 07:43:12;;;;;;;12.80;7.80;;;4.80;40.80;;;;;;10414763;28;20896;-76
2024/01/27 07:48:17;;;;;;;9.70;5.40;;;4.90;40.80;;;;;;10415157;28;20292;-75
2024/01/27 07:53:20;;;;;;;26.07;14.20;;;5.00;40.70;;;;;;10414642;28;20674;-76
2024/01/27 07:58:23;;;;;;;74.47;41.20;;;5.10;40.70;;;;;;10414246;28;20229;-77
2024/01/27 08:03:28;;;;;;;45.57;26.87;;;5.20;41.00;;;;;;10422331;28;20229;-76
2024/01/27 08:08:31;;;;;;;22.53;16.17;;;5.30;41.40;;;;;;10408986;28;20913;-76
2024/01/27 08:13:34;;;;;;;13.60;9.53;;;5.50;41.50;;;;;;10398426;28;20226;-76
2024/01/27 08:18:39;;;;;;;15.53;11.27;;;5.70;41.80;;;;;;10398560;28;20261;-75
2024/01/27 08:23:44;;;;;;;9.10;7.40;;;5.90;41.90;;;;;;10387138;28;20242;-76
2024/01/27 08:28:47;;;;;;;5.63;4.27;;;6.10;42.00;;;;;;10408217;28;20239;-76
2024/01/27 08:33:52;;;;;;;7.23;3.67;;;6.40;41.80;;;;;;10405101;28;20358;-79
2024/01/27 08:38:55;;;;;;;5.73;3.10;;;6.70;41.70;;;;;;10403790;28;20218;-79
2024/01/27 08:43:58;;;;;;;7.10;4.20;;;7.00;41.50;;;;;;10403724;28;20225;-79
2024/01/27 08:49:03;;;;;;;10.70;7.33;;;7.20;41.60;;;;;;10399264;28;20318;-78
2024/01/27 08:54:06;;;;;;;5.83;3.83;;;7.50;41.10;;;;;;10399452;28;20317;-79
2024/01/27 08:59:09;;;;;;;7.40;3.83;;;7.70;40.90;;;;;;10405053;28;20313;-78
2024/01/27 09:04:14;;;;;;;9.70;3.07;;;7.90;40.50;;;;;;10405751;28;20305;-79
2024/01/27 09:09:17;;;;;;;5.87;3.27;;;8.10;40.20;;;;;;10405613;28;20226;-78
2024/01/27 09:14:21;;;;;;;9.00;3.43;;;8.20;40.00;;;;;;10385489;28;20633;-75
2024/01/27 09:19:26;;;;;;;8.57;2.90;;;8.30;39.50;;;;;;10388834;28;20238;-75
2024/01/27 09:24:30;;;;;;;5.63;3.03;;;8.40;39.60;;;;;;10388455;28;20244;-75
2024/01/27 09:29:33;;;;;;;6.23;2.70;;;8.50;39.60;;;;;;10388839;28;20309;-75
2024/01/27 09:34:38;;;;;;;5.23;2.60;;;8.60;39.60;;;;;;10396429;28;20320;-75
2024/01/27 09:39:41;;;;;;;4.37;2.70;;;8.60;38.70;;;;;;10383781;28;20229;-75
2024/01/27 09:44:45;;;;;;;5.80;2.90;;;8.70;39.20;;;;;;10388347;28;20605;-75
2024/01/27 09:49:51;;;;;;;7.37;3.10;;;8.80;39.20;;;;;;10402607;28;20213;-75
2024/01/27 09:54:54;;;;;;;7.93;3.70;;;8.90;39.20;;;;;;10387733;28;20254;-75
2024/01/27 09:59:59;;;;;;;6.67;3.37;;;9.00;38.80;;;;;;10374054;28;20570;-75
2024/01/27 10:05:05;;;;;;;9.37;3.97;;;9.20;38.20;;;;;;10398673;28;20226;-75
2024/01/27 10:10:08;;;;;;;6.63;3.00;;;9.20;37.90;;;;;;10365278;28;20222;-75
2024/01/27 10:15:21;;;;;;;7.30;3.00;;;9.20;38.40;;;;;;10380313;28;20323;-75
2024/01/27 10:20:30;;;;;;;10.53;3.20;;;9.30;37.70;;;;;;10447451;28;20237;-75
2024/01/27 10:25:38;;;;;;;5.47;2.83;;;9.30;37.50;;;;;;10420123;28;20225;-77
2024/01/27 10:30:42;;;;;;;5.80;2.97;;;9.50;38.00;;;;;;10403478;28;20231;-76
2024/01/27 10:35:46;;;;;;;7.20;3.20;;;9.60;38.60;;;;;;10397528;28;20639;-77
2024/01/27 10:40:50;;;;;;;4.80;2.30;;;9.80;38.40;;;;;;10382443;28;20287;-74
2024/01/27 10:45:54;;;;;;;6.43;2.63;;;10.00;37.00;;;;;;10386868;28;20221;-75
2024/01/27 10:51:01;;;;;;;5.50;2.50;;;10.10;37.10;;;;;;10399688;28;20217;-75
2024/01/27 10:56:08;;;;;;;7.60;2.83;;;10.20;35.90;;;;;;10395429;28;20263;-74
2024/01/27 11:01:12;;;;;;;4.70;2.50;;;10.30;34.90;;;;;;10405496;28;20233;-73
2024/01/27 11:06:18;;;;;;;7.20;2.60;;;10.20;34.80;;;;;;10405810;28;20321;-74
2024/01/27 11:11:22;;;;;;;7.50;3.13;;;10.20;35.00;;;;;;10406015;28;20237;-74
2024/01/27 11:16:27;;;;;;;4.60;2.63;;;10.10;34.60;;;;;;10405560;28;20229;-74
2024/01/27 11:21:32;;;;;;;6.23;2.70;;;10.10;34.70;;;;;;10388689;28;20263;-76
2024/01/27 11:26:35;;;;;;;4.87;2.70;;;10.00;35.20;;;;;;10412615;28;20269;-75
2024/01/27 11:31:41;;;;;;;8.73;2.97;;;10.10;35.70;;;;;;10395138;28;20228;-74
2024/01/27 11:36:46;;;;;;;6.43;2.50;;;10.20;35.30;;;;;;10404103;28;20230;-76
2024/01/27 11:41:50;;;;;;;7.70;3.00;;;10.30;35.90;;;;;;10403389;28;20376;-76
2024/01/27 11:46:54;;;;;;;6.67;2.93;;;10.40;35.30;;;;;;10369099;28;20808;-76
2024/01/27 11:51:59;;;;;;;6.63;2.70;;;10.50;35.30;;;;;;10401077;28;20300;-75
2024/01/27 11:57:02;;;;;;;5.87;2.70;;;10.50;34.70;;;;;;10388334;28;20313;-75
2024/01/27 12:02:06;;;;;;;6.30;3.00;;;10.60;35.40;;;;;;10405196;28;20225;-76
2024/01/27 12:07:11;;;;;;;7.37;2.60;;;10.70;35.20;;;;;;10400432;28;20226;-75
2024/01/27 12:12:15;;;;;;;4.13;2.60;;;10.70;34.50;;;;;;10409571;28;20301;-75
2024/01/27 12:17:19;;;;;;;5.23;2.70;;;10.80;35.10;;;;;;10401288;28;20239;-75
2024/01/27 12:22:26;;;;;;;4.53;2.70;;;10.90;34.70;;;;;;10402655;28;20230;-75
2024/01/27 12:27:30;;;;;;;5.87;2.50;;;10.90;34.30;;;;;;10411494;28;20229;-76
2024/01/27 12:32:33;;;;;;;6.57;2.77;;;10.90;35.30;;;;;;10414180;28;20712;-77
2024/01/27 12:37:37;;;;;;;5.77;2.57;;;10.80;34.30;;;;;;10414213;28;20230;-77
2024/01/27 12:42:41;;;;;;;8.53;3.20;;;10.80;34.20;;;;;;10399423;28;20230;-78
2024/01/27 12:47:44;;;;;;;7.37;2.50;;;10.90;35.40;;;;;;10399891;28;20233;-78
2024/01/27 12:52:48;;;;;;;5.53;2.57;;;10.90;34.70;;;;;;10390233;28;20285;-77
2024/01/27 12:57:52;;;;;;;4.23;2.70;;;10.90;34.10;;;;;;10408893;28;20264;-78
2024/01/27 13:02:55;;;;;;;9.17;2.90;;;11.00;34.40;;;;;;10406472;28;20252;-78
2024/01/27 13:08:01;;;;;;;4.90;2.50;;;10.90;34.00;;;;;;10407901;28;20740;-77
2024/01/27 13:13:05;;;;;;;6.03;2.23;;;10.90;33.30;;;;;;10393617;28;20318;-77
2024/01/27 13:18:08;;;;;;;5.13;2.40;;;10.80;33.80;;;;;;10373732;28;20236;-78
2024/01/27 13:23:13;;;;;;;4.87;2.30;;;10.80;33.90;;;;;;10406445;28;20612;-77
2024/01/27 13:28:16;;;;;;;3.27;2.10;;;10.80;33.50;;;;;;10407210;28;20252;-77
2024/01/27 13:33:19;;;;;;;4.30;2.10;;;10.80;33.60;;;;;;10410249;28;20316;-77
2024/01/27 13:38:25;;;;;;;4.90;2.13;;;10.90;33.60;;;;;;10410340;28;20221;-77
2024/01/27 13:43:29;;;;;;;6.10;2.50;;;10.80;33.00;;;;;;10410181;28;20280;-76
2024/01/27 13:48:32;;;;;;;3.60;1.70;;;10.80;33.20;;;;;;10410289;28;20229;-77
2024/01/27 13:53:37;;;;;;;4.40;2.00;;;10.80;33.10;;;;;;10408987;28;20229;-76
2024/01/27 13:58:49;;;;;;;4.90;2.30;;;10.80;32.90;;;;;;10408284;28;20224;-77
2024/01/27 14:03:52;;;;;;;4.23;2.00;;;10.80;33.30;;;;;;10408870;28;20750;-77
2024/01/27 14:08:57;;;;;;;5.23;2.30;;;10.90;33.30;;;;;;10410411;28;20236;-78
2024/01/27 14:14:00;;;;;;;6.77;2.27;;;10.90;32.50;;;;;;10410278;28;20234;-77
2024/01/27 14:19:03;;;;;;;3.63;1.80;;;10.80;32.60;;;;;;10408839;28;20624;-77
2024/01/27 14:24:09;;;;;;;5.33;2.30;;;10.70;32.80;;;;;;10409269;28;20706;-77
2024/01/27 14:29:13;;;;;;;3.73;2.07;;;10.60;32.40;;;;;;10408724;28;20633;-77
2024/01/27 14:34:16;;;;;;;4.90;2.10;;;10.60;34.30;;;;;;10405673;28;20320;-76
2024/01/27 14:39:21;;;;;;;2.87;2.20;;;10.70;34.00;;;;;;10405323;28;20235;-75
2024/01/27 14:44:24;;;;;;;4.03;1.93;;;10.80;33.70;;;;;;10405145;28;20225;-76
2024/01/27 14:49:28;;;;;;;3.63;1.83;;;10.80;33.30;;;;;;10404997;28;20231;-75
2024/01/27 14:54:33;;;;;;;4.10;1.60;;;10.80;33.90;;;;;;10405235;28;20230;-75
2024/01/27 14:59:38;;;;;;;5.23;1.80;;;10.80;33.00;;;;;;10405033;28;20230;-75
2024/01/27 15:04:42;;;;;;;3.70;2.10;;;10.90;33.20;;;;;;10404511;28;20264;-75
2024/01/27 15:09:47;;;;;;;4.67;1.87;;;10.90;33.10;;;;;;10404735;28;20221;-75
2024/01/27 15:14:50;;;;;;;3.63;2.00;;;10.90;32.90;;;;;;10403518;28;20248;-73
2024/01/27 15:19:53;;;;;;;5.10;1.77;;;10.90;33.20;;;;;;10403777;28;20317;-73
2024/01/27 15:24:58;;;;;;;6.47;2.10;;;10.90;32.80;;;;;;10402879;28;20736;-73
2024/01/27 15:30:02;;;;;;;3.73;2.10;;;10.90;33.10;;;;;;10402214;28;20264;-73
2024/01/27 15:35:06;;;;;;;5.03;2.30;;;10.90;33.90;;;;;;10409125;28;20239;-74
2024/01/27 15:40:13;;;;;;;7.70;2.50;;;10.90;33.50;;;;;;10409936;28;20289;-74
2024/01/27 15:45:16;;;;;;;5.40;2.43;;;10.90;32.80;;;;;;10411179;28;20241;-73
2024/01/27 15:50:21;;;;;;;5.87;3.87;;;10.90;33.20;;;;;;10411182;28;20226;-73
2024/01/27 15:55:27;;;;;;;25.53;4.27;;;10.80;33.00;;;;;;10411029;28;20234;-73
2024/01/27 16:00:30;;;;;;;8.20;3.47;;;10.70;33.10;;;;;;10410785;28;20245;-73
2024/01/27 16:05:34;;;;;;;7.30;3.07;;;10.60;34.50;;;;;;10410838;28;20578;-74
2024/01/27 16:10:39;;;;;;;7.40;3.80;;;10.60;35.10;;;;;;10409425;28;20241;-75
2024/01/27 16:15:42;;;;;;;11.23;8.60;;;10.70;33.10;;;;;;10408485;28;20284;-75
2024/01/27 16:20:49;;;;;;;7.53;5.00;;;10.60;33.20;;;;;;10411831;28;20230;-76
2024/01/27 16:25:54;;;;;;;5.13;3.50;;;10.40;33.00;;;;;;10409445;28;20305;-74
2024/01/27 16:30:57;;;;;;;5.87;3.73;;;10.20;33.60;;;;;;10409202;28;20233;-73
2024/01/27 16:36:00;;;;;;;7.60;5.13;;;10.10;33.00;;;;;;10408373;28;20716;-72
2024/01/27 16:41:05;;;;;;;8.27;5.30;;;9.90;33.70;;;;;;10407238;28;20237;-72
2024/01/27 16:46:09;;;;;;;7.47;5.37;;;9.70;33.50;;;;;;10408862;28;20241;-79
2024/01/27 16:51:13;;;;;;;6.97;4.57;;;9.50;34.40;;;;;;10414715;28;20242;-78
2024/01/27 16:56:23;;;;;;;8.07;5.27;;;9.30;33.80;;;;;;10413273;28;20234;-77
2024/01/27 17:01:27;;;;;;;6.50;5.33;;;9.20;33.70;;;;;;10413009;28;20229;-80
2024/01/27 17:06:31;;;;;;;7.03;4.90;;;9.00;34.00;;;;;;10413423;28;20237;-78
2024/01/27 17:11:35;;;;;;;69.80;38.03;;;8.90;34.40;;;;;;10420474;28;20229;-78
2024/01/27 17:16:41;;;;;;;55.17;29.60;;;8.60;33.70;;;;;;10421559;28;20280;-78
2024/01/27 17:21:44;;;;;;;80.30;46.53;;;8.50;33.90;;;;;;10421639;28;20253;-79
2024/01/27 17:26:49;;;;;;;43.50;26.67;;;8.40;34.30;;;;;;10420354;28;20265;-78
2024/01/27 17:31:53;;;;;;;24.17;15.50;;;8.30;34.30;;;;;;10421838;28;20313;-79
2024/01/27 17:36:57;;;;;;;21.60;14.93;;;8.30;34.10;;;;;;10421284;28;20240;-79
2024/01/27 17:42:01;;;;;;;23.93;16.30;;;8.20;34.10;;;;;;10421468;28;20249;-80
2024/01/27 17:47:05;;;;;;;22.40;17.47;;;8.10;33.90;;;;;;10421145;28;20256;-79
2024/01/27 17:52:08;;;;;;;26.23;16.73;;;7.90;34.00;;;;;;10424473;28;20340;-79
2024/01/27 17:57:13;;;;;;;12.43;8.10;;;7.80;34.30;;;;;;10415211;28;20237;-78
2024/01/27 18:02:17;;;;;;;12.07;8.00;;;7.70;34.30;;;;;;10395148;28;20264;-77
2024/01/27 18:07:20;;;;;;;15.23;10.77;;;7.60;34.50;;;;;;10396978;28;20237;-77
2024/01/27 18:12:25;;;;;;;19.20;13.70;;;7.60;34.50;;;;;;10394168;28;20229;-77
2024/01/27 18:17:28;;;;;;;15.13;11.30;;;7.50;34.20;;;;;;10397143;28;20245;-76
2024/01/27 18:22:31;;;;;;;14.20;11.57;;;7.50;34.40;;;;;;10405777;28;20732;-76
2024/01/27 18:27:36;;;;;;;12.87;10.77;;;7.40;34.60;;;;;;10403812;28;20272;-76
2024/01/27 18:32:41;;;;;;;12.23;9.90;;;7.40;34.80;;;;;;10405969;28;20236;-75
2024/01/27 18:37:45;;;;;;;15.80;13.27;;;7.30;34.60;;;;;;10405914;28;20221;-77
2024/01/27 18:42:49;;;;;;;19.17;14.57;;;7.30;34.50;;;;;;10405313;28;20232;-77
2024/01/27 18:47:53;;;;;;;24.37;18.13;;;7.10;34.50;;;;;;10405452;28;20743;-76
2024/01/27 18:52:56;;;;;;;20.83;13.50;;;7.00;34.60;;;;;;10405287;28;20234;-76
2024/01/27 18:58:00;;;;;;;16.53;11.57;;;6.90;34.70;;;;;;10405255;28;20233;-77
2024/01/27 19:03:06;;;;;;;14.90;10.50;;;6.90;34.80;;;;;;10405009;28;20730;-77
2024/01/27 19:08:10;;;;;;;12.90;10.80;;;6.80;34.60;;;;;;10419001;28;20316;-77
2024/01/27 19:13:14;;;;;;;14.43;10.80;;;6.50;34.60;;;;;;10418559;28;20233;-77
2024/01/27 19:18:17;;;;;;;115.37;58.50;;;6.30;35.00;;;;;;10418534;28;20235;-77
2024/01/27 19:23:21;;;;;;;58.70;31.07;;;6.10;35.10;;;;;;10418007;28;20312;-77
2024/01/27 19:28:25;;;;;;;26.10;17.90;;;6.00;35.50;;;;;;10417865;28;20229;-77
2024/01/27 19:33:29;;;;;;;19.73;14.03;;;6.00;35.50;;;;;;10418201;28;20251;-77
2024/01/27 19:38:32;;;;;;;17.33;13.30;;;5.90;35.40;;;;;;10418217;28;20228;-76
2024/01/27 19:43:38;;;;;;;18.23;12.87;;;5.90;35.60;;;;;;10417426;28;20236;-77
2024/01/27 19:48:41;;;;;;;12.63;10.70;;;5.90;35.60;;;;;;10417932;28;20218;-77
2024/01/27 19:53:45;;;;;;;15.20;13.60;;;5.80;35.50;;;;;;10417598;28;20226;-77
2024/01/27 19:58:50;;;;;;;13.67;11.57;;;5.80;35.50;;;;;;10417646;28;20225;-77
2024/01/27 20:03:53;;;;;;;12.87;10.00;;;5.80;35.60;;;;;;10417462;28;20325;-77
2024/01/27 20:08:57;;;;;;;15.87;10.87;;;5.70;35.70;;;;;;10417155;28;20225;-77
2024/01/27 20:14:16;;;;;;;14.70;12.43;;;5.80;35.90;;;;;;10417101;28;20240;-76
2024/01/27 20:19:21;;;;;;;13.57;11.50;;;5.80;35.60;;;;;;10410516;28;20321;-77
2024/01/27 20:24:25;;;;;;;14.80;11.73;;;5.70;35.40;;;;;;10410221;28;20240;-76
2024/01/27 20:29:30;;;;;;;15.47;12.13;;;5.60;35.40;;;;;;10410285;28;20610;-76
2024/01/27 20:34:33;;;;;;;13.67;11.93;;;5.50;35.60;;;;;;10409944;28;20225;-77
2024/01/27 20:39:37;;;;;;;15.30;11.50;;;5.50;35.80;;;;;;10410036;28;20662;-77
2024/01/27 20:44:42;;;;;;;14.30;10.27;;;5.40;35.70;;;;;;10409859;28;20249;-77
2024/01/27 20:49:45;;;;;;;9.60;8.50;;;5.40;35.70;;;;;;10411752;28;20249;-77
2024/01/27 20:54:48;;;;;;;11.40;9.17;;;5.40;35.50;;;;;;10402201;28;20287;-77
2024/01/27 20:59:53;;;;;;;12.70;10.63;;;5.30;35.40;;;;;;10368118;28;20238;-77
2024/01/27 21:04:57;;;;;;;13.30;8.90;;;5.20;35.60;;;;;;10390236;28;20239;-78
2024/01/27 21:10:00;;;;;;;14.73;10.43;;;5.10;35.80;;;;;;10424208;28;20241;-77
2024/01/27 21:15:06;;;;;;;12.47;9.80;;;5.10;35.60;;;;;;10395730;28;20234;-77
2024/01/27 21:20:11;;;;;;;12.40;10.73;;;5.00;35.60;;;;;;10366388;28;20233;-77
2024/01/27 21:25:14;;;;;;;14.87;10.93;;;4.90;35.80;;;;;;10365711;28;20240;-77
2024/01/27 21:30:19;;;;;;;13.37;9.73;;;4.80;35.90;;;;;;10365256;28;20314;-77
2024/01/27 21:35:23;;;;;;;11.57;9.70;;;4.80;36.10;;;;;;10365548;28;20223;-77
2024/01/27 21:40:26;;;;;;;15.00;10.63;;;4.80;36.00;;;;;;10365072;28;20222;-77
2024/01/27 21:45:31;;;;;;;12.00;9.83;;;4.80;35.90;;;;;;10412284;28;20309;-77
2024/01/27 21:50:34;;;;;;;11.17;10.03;;;4.70;35.70;;;;;;10404810;28;20276;-76
2024/01/27 21:55:38;;;;;;;15.93;11.97;;;4.60;35.90;;;;;;10363500;28;20713;-77
2024/01/27 22:00:42;;;;;;;13.83;11.80;;;4.50;35.90;;;;;;10380212;28;20313;-77
2024/01/27 22:05:46;;;;;;;14.43;12.17;;;4.50;36.30;;;;;;10395874;28;20597;-76
2024/01/27 22:10:49;;;;;;;12.00;10.30;;;4.50;36.30;;;;;;10411838;28;20241;-77
2024/01/27 22:15:53;;;;;;;10.77;8.50;;;4.50;36.40;;;;;;10404656;28;20737;-76
2024/01/27 22:20:58;;;;;;;10.53;7.37;;;4.40;36.20;;;;;;10381857;28;20238;-76
2024/01/27 22:26:02;;;;;;;11.23;7.97;;;4.30;36.20;;;;;;10396504;28;20233;-76
2024/01/27 22:31:06;;;;;;;9.87;8.27;;;4.30;36.20;;;;;;10391728;28;20226;-76
2024/01/27 22:36:12;;;;;;;9.67;7.07;;;4.20;36.10;;;;;;10398020;28;20257;-76
2024/01/27 22:41:16;;;;;;;9.70;7.07;;;4.10;36.00;;;;;;10375388;28;20604;-76
2024/01/27 22:46:20;;;;;;;8.63;6.67;;;4.00;35.90;;;;;;10390151;28;20692;-76
2024/01/27 22:51:24;;;;;;;12.40;8.50;;;4.00;36.00;;;;;;10391801;28;20523;-76
2024/01/27 22:56:28;;;;;;;11.40;7.77;;;4.00;36.00;;;;;;10398434;28;20567;-76
2024/01/27 23:01:32;;;;;;;10.17;7.70;;;4.00;36.00;;;;;;10382182;28;20313;-76
2024/01/27 23:06:36;;;;;;;10.00;7.00;;;3.90;36.00;;;;;;10386103;28;20222;-76
2024/01/27 23:11:39;;;;;;;9.90;7.10;;;3.90;36.20;;;;;;10392760;28;20237;-76
2024/01/27 23:16:43;;;;;;;8.03;6.40;;;3.90;36.30;;;;;;10387829;28;20686;-77
2024/01/27 23:21:47;;;;;;;12.40;7.60;;;4.00;36.40;;;;;;10398903;28;20224;-77
2024/01/27 23:26:50;;;;;;;8.33;7.43;;;4.00;36.00;;;;;;10393214;28;20740;-77
2024/01/27 23:31:55;;;;;;;8.60;5.57;;;4.10;36.10;;;;;;10394192;28;20253;-77
2024/01/27 23:36:58;;;;;;;8.03;6.73;;;4.10;36.10;;;;;;10393606;28;20237;-77
2024/01/27 23:42:01;;;;;;;9.57;6.90;;;4.00;36.00;;;;;;10388430;28;20504;-76
2024/01/27 23:47:06;;;;;;;9.63;6.90;;;4.10;36.10;;;;;;10393665;28;20316;-76
2024/01/27 23:52:11;;;;;;;7.93;6.83;;;4.10;36.10;;;;;;10394197;28;20230;-76
2024/01/27 23:57:14;;;;;;;9.40;7.20;;;4.10;36.00;;;;;;10396730;28;20281;-76
